createdAt,value
2019-05-12T00:01:58.774Z,13.30
2019-05-12T00:04:28.179Z,8.13
2019-05-12T00:06:58.534Z,7.85
2019-05-12T00:09:28.467Z,10.30
2019-05-12T00:11:59.103Z,9.38
2019-05-12T00:14:28.614Z,11.73
2019-05-12T00:16:58.180Z,11.05
2019-05-12T00:19:28.547Z,8.55
2019-05-12T00:21:58.758Z,9.70
2019-05-12T00:24:28.271Z,11.33
2019-05-12T00:26:59.836Z,10.05
2019-05-12T00:29:29.144Z,8.05
2019-05-12T00:31:58.474Z,10.15
2019-05-12T00:34:28.859Z,9.80
2019-05-12T00:36:58.671Z,8.35
2019-05-12T00:39:28.048Z,9.43
2019-05-12T00:41:58.715Z,8.85
2019-05-12T00:44:28.507Z,6.53
2019-05-12T00:46:57.956Z,10.58
2019-05-12T00:49:29.007Z,10.98
2019-05-12T00:51:58.774Z,11.38
2019-05-12T00:54:28.613Z,7.72
2019-05-12T00:56:58.592Z,8.35
2019-05-12T00:59:28.119Z,8.40
2019-05-12T01:01:58.634Z,5.97
2019-05-12T01:04:29.100Z,9.50
2019-05-12T01:06:58.643Z,11.88
2019-05-12T01:09:28.348Z,6.87
2019-05-12T01:11:58.772Z,9.08
2019-05-12T01:14:28.400Z,6.78
2019-05-12T01:16:57.965Z,7.83
2019-05-12T01:19:28.830Z,11.95
2019-05-12T01:21:58.787Z,7.37
2019-05-12T01:24:28.459Z,8.20
2019-05-12T01:26:58.335Z,7.30
2019-05-12T01:29:28.272Z,7.78
2019-05-12T01:32:11.077Z,7.10
2019-05-12T01:34:40.426Z,11.18
2019-05-12T01:37:24.797Z,8.20
2019-05-12T01:39:54.429Z,8.65
2019-05-12T01:42:24.179Z,9.35
2019-05-12T01:44:53.439Z,8.63
2019-05-12T01:47:22.752Z,12.30
2019-05-12T01:49:52.069Z,13.50
2019-05-12T01:52:21.519Z,8.78
2019-05-12T01:54:50.791Z,8.83
2019-05-12T01:57:20.133Z,11.20
2019-05-12T01:59:49.381Z,10.68
2019-05-12T02:02:18.799Z,9.95
2019-05-12T02:05:10.922Z,10.32
2019-05-12T02:07:49.353Z,16.35
2019-05-12T02:10:19.319Z,13.38
2019-05-12T02:12:50.223Z,11.18
2019-05-12T02:15:23.995Z,8.30
2019-05-12T02:17:53.326Z,10.45
2019-05-12T02:20:30.309Z,9.15
2019-05-12T02:22:59.652Z,9.98
2019-05-12T02:25:29.083Z,14.05
2019-05-12T02:27:58.716Z,11.08
2019-05-12T02:30:30.384Z,12.88
2019-05-12T02:32:59.841Z,9.83
2019-05-12T02:39:31.616Z,12.13
2019-05-12T02:42:34.221Z,10.98
2019-05-12T02:45:35.575Z,9.50
2019-05-12T02:54:50.589Z,8.28
2019-05-12T02:57:34.306Z,7.35
2019-05-12T03:02:54.751Z,9.05
2019-05-12T03:05:35.733Z,4.72
2019-05-12T03:08:34.866Z,9.00
2019-05-12T03:11:29.938Z,8.23
2019-05-12T03:14:00.033Z,7.25
2019-05-12T03:16:29.479Z,6.85
2019-05-12T03:18:58.777Z,9.75
2019-05-12T03:21:28.153Z,9.45
2019-05-12T03:23:57.444Z,8.28
2019-05-12T03:26:26.735Z,6.92
2019-05-12T03:28:56.104Z,6.30
2019-05-12T03:31:31.744Z,7.47
2019-05-12T03:33:59.997Z,10.15
2019-05-12T03:36:34.858Z,6.33
2019-05-12T03:38:58.750Z,7.72
2019-05-12T03:41:28.087Z,8.48
2019-05-12T03:43:57.389Z,6.95
2019-05-12T03:46:26.683Z,7.00
2019-05-12T03:48:56.067Z,6.30
2019-05-12T03:51:25.464Z,7.10
2019-05-12T03:53:55.890Z,9.23
2019-05-12T03:56:26.078Z,7.87
2019-05-12T03:58:55.564Z,8.85
2019-05-12T04:01:25.837Z,7.37
2019-05-12T04:03:55.825Z,6.28
2019-05-12T04:06:25.153Z,9.58
2019-05-12T04:08:57.370Z,7.95
2019-05-12T04:11:25.608Z,7.55
2019-05-12T04:13:55.212Z,9.45
2019-05-12T04:16:25.090Z,8.28
2019-05-12T04:18:55.197Z,7.28
2019-05-12T04:21:24.805Z,6.87
2019-05-12T04:23:55.038Z,8.43
2019-05-12T04:26:25.504Z,8.38
2019-05-12T04:28:55.075Z,9.25
2019-05-12T04:31:25.076Z,7.42
2019-05-12T04:33:54.972Z,7.28
2019-05-12T04:36:25.139Z,6.60
2019-05-12T04:38:55.553Z,9.68
2019-05-12T04:41:26.149Z,7.47
2019-05-12T04:43:55.663Z,9.95
2019-05-12T04:46:25.488Z,7.83
2019-05-12T04:48:54.965Z,8.20
2019-05-12T04:51:25.879Z,7.10
2019-05-12T04:53:55.450Z,8.95
2019-05-12T04:56:25.277Z,11.05
2019-05-12T04:58:54.854Z,9.53
2019-05-12T05:01:25.327Z,7.03
2019-05-12T05:03:55.212Z,6.70
2019-05-12T05:06:25.555Z,6.35
2019-05-12T05:08:54.923Z,10.70
2019-05-12T05:11:25.099Z,7.95
2019-05-12T05:13:55.067Z,8.93
2019-05-12T05:16:25.069Z,9.48
2019-05-12T05:18:54.491Z,9.05
2019-05-12T05:21:24.118Z,7.20
2019-05-12T05:23:53.823Z,7.62
2019-05-12T05:26:27.810Z,7.78
2019-05-12T05:28:54.398Z,9.80
2019-05-12T05:31:24.339Z,9.45
2019-05-12T05:33:53.849Z,10.72
2019-05-12T05:36:25.034Z,8.25
2019-05-12T05:38:57.308Z,8.83
2019-05-12T05:41:25.311Z,8.20
2019-05-12T05:43:58.373Z,9.50
2019-05-12T05:46:25.795Z,10.82
2019-05-12T05:48:55.140Z,7.80
2019-05-12T05:51:24.431Z,14.70
2019-05-12T05:53:54.118Z,9.55
2019-05-12T05:56:38.452Z,10.78
2019-05-12T05:58:54.730Z,12.10
2019-05-12T06:01:24.664Z,10.15
2019-05-12T06:03:58.385Z,9.60
2019-05-12T06:06:25.342Z,8.25
2019-05-12T06:08:58.715Z,8.98
2019-05-12T06:11:28.639Z,9.73
2019-05-12T06:14:03.094Z,9.20
2019-05-12T06:16:29.094Z,7.00
2019-05-12T06:18:58.350Z,6.53
2019-05-12T06:21:29.164Z,8.05
2019-05-12T06:23:58.616Z,6.70
2019-05-12T06:26:32.721Z,8.20
2019-05-12T06:28:58.943Z,8.60
2019-05-12T06:31:29.732Z,7.62
2019-05-12T06:33:59.188Z,6.92
2019-05-12T06:36:28.823Z,8.75
2019-05-12T06:38:58.104Z,9.60
2019-05-12T06:41:27.345Z,10.23
2019-05-12T06:43:56.592Z,10.38
2019-05-12T06:46:26.028Z,8.63
2019-05-12T06:48:55.249Z,9.03
2019-05-12T06:51:25.927Z,7.30
2019-05-12T06:53:55.295Z,6.47
2019-05-12T06:56:24.544Z,7.05
2019-05-12T06:58:53.911Z,8.23
2019-05-12T07:01:24.230Z,6.30
2019-05-12T07:03:54.026Z,9.18
2019-05-12T07:06:24.710Z,9.98
2019-05-12T07:09:05.366Z,6.97
2019-05-12T07:11:25.336Z,9.13
2019-05-12T07:14:02.180Z,7.47
2019-05-12T07:16:29.997Z,8.80
2019-05-12T07:18:56.702Z,7.08
2019-05-12T07:21:27.267Z,7.03
2019-05-12T07:24:00.416Z,6.10
2019-05-12T07:26:27.816Z,5.45
2019-05-12T07:28:57.105Z,3.00
2019-05-12T07:31:26.485Z,3.95
2019-05-12T07:33:55.873Z,5.05
2019-05-12T07:36:25.978Z,6.70
2019-05-12T07:39:03.912Z,4.53
2019-05-12T07:41:29.894Z,5.75
2019-05-12T07:44:01.021Z,5.12
2019-05-12T07:46:31.219Z,5.30
2019-05-12T07:49:00.484Z,3.80
2019-05-12T07:51:30.238Z,4.00
2019-05-12T07:54:00.801Z,3.80
2019-05-12T07:56:32.770Z,3.25
2019-05-12T07:59:01.205Z,3.20
2019-05-12T08:01:35.884Z,3.90
2019-05-12T08:04:01.557Z,3.92
2019-05-12T08:06:32.702Z,3.55
2019-05-12T08:09:04.056Z,3.25
2019-05-12T08:11:34.656Z,3.02
2019-05-12T08:14:04.273Z,3.40
2019-05-12T08:16:36.782Z,4.05
2019-05-12T08:19:04.598Z,5.65
2019-05-12T08:21:34.869Z,5.35
2019-05-12T08:24:05.075Z,4.17
2019-05-12T08:26:34.417Z,3.60
2019-05-12T08:29:04.395Z,4.28
2019-05-12T08:31:40.132Z,4.15
2019-05-12T08:34:04.850Z,3.10
2019-05-12T08:36:34.390Z,2.33
2019-05-12T08:39:11.328Z,2.87
2019-05-12T08:41:36.673Z,3.50
2019-05-12T08:44:06.038Z,5.53
2019-05-12T08:46:35.500Z,2.47
2019-05-12T08:49:05.346Z,3.12
2019-05-12T08:51:34.837Z,4.47
2019-05-12T08:54:07.800Z,3.58
2019-05-12T08:56:35.243Z,3.70
2019-05-12T08:59:09.432Z,3.35
2019-05-12T09:01:35.567Z,4.03
2019-05-12T09:04:11.184Z,3.85
2019-05-12T09:06:37.033Z,3.65
2019-05-12T09:09:08.015Z,3.92
2019-05-12T09:11:37.358Z,4.25
2019-05-12T09:14:06.678Z,3.00
2019-05-12T09:16:35.950Z,3.40
2019-05-12T09:19:10.129Z,2.90
2019-05-12T09:21:37.185Z,2.87
2019-05-12T09:24:06.616Z,3.08
2019-05-12T09:26:35.901Z,2.22
2019-05-12T09:29:07.399Z,2.05
2019-05-12T09:31:36.208Z,2.45
2019-05-12T09:34:11.595Z,2.67
2019-05-12T09:36:36.488Z,4.55
2019-05-12T09:39:07.768Z,3.67
2019-05-12T09:41:42.781Z,3.85
2019-05-12T09:44:08.461Z,4.08
2019-05-12T09:46:37.845Z,2.60
2019-05-12T09:49:07.107Z,4.30
2019-05-12T09:51:41.472Z,3.02
2019-05-12T09:54:07.416Z,3.25
2019-05-12T09:56:36.687Z,1.72
2019-05-12T09:59:17.101Z,2.67
2019-05-12T10:01:39.411Z,2.58
2019-05-12T10:04:10.487Z,2.12
2019-05-12T10:06:39.143Z,6.37
2019-05-12T10:09:14.090Z,3.12
2019-05-12T10:11:39.654Z,3.80
2019-05-12T10:14:11.051Z,3.10
2019-05-12T10:16:45.625Z,2.72
2019-05-12T10:19:11.123Z,2.52
2019-05-12T10:21:43.958Z,2.35
2019-05-12T10:24:11.654Z,2.50
2019-05-12T10:26:45.767Z,3.58
2019-05-12T10:29:17.506Z,2.10
2019-05-12T10:31:44.574Z,2.08
2019-05-12T10:34:19.842Z,3.02
2019-05-12T10:36:49.509Z,2.67
2019-05-12T10:39:18.964Z,3.45
2019-05-12T10:41:49.381Z,2.00
2019-05-12T10:44:18.665Z,2.15
2019-05-12T10:46:53.294Z,2.33
2019-05-12T10:49:23.317Z,2.10
2019-05-12T10:51:53.949Z,2.62
2019-05-12T10:54:24.373Z,2.27
2019-05-12T10:56:54.513Z,2.30
2019-05-12T10:59:32.308Z,3.15
2019-05-12T11:01:55.055Z,2.27
2019-05-12T11:04:35.794Z,4.80
2019-05-12T11:06:55.329Z,2.35
2019-05-12T11:09:34.586Z,2.27
2019-05-12T11:12:33.221Z,2.22
2019-05-12T11:15:34.243Z,2.10
2019-05-12T11:18:11.567Z,1.92
2019-05-12T11:20:40.810Z,1.90
2019-05-12T11:25:57.347Z,2.15
2019-05-12T11:28:33.668Z,3.45
2019-05-12T11:31:03.102Z,1.80
2019-05-12T11:33:34.152Z,1.87
2019-05-12T11:36:34.445Z,2.00
2019-05-12T11:39:38.683Z,1.95
2019-05-12T11:42:05.061Z,2.60
2019-05-12T11:44:34.392Z,1.90
2019-05-12T11:47:03.935Z,1.75
2019-05-12T11:49:33.614Z,2.30
2019-05-12T11:52:07.609Z,1.57
2019-05-12T11:54:34.103Z,1.50
2019-05-12T11:57:03.400Z,2.12
2019-05-12T11:59:34.156Z,1.30
2019-05-12T12:02:03.684Z,2.20
2019-05-12T12:04:48.140Z,1.55
2019-05-12T12:07:17.535Z,1.30
2019-05-12T12:09:49.482Z,1.55
2019-05-12T12:12:17.886Z,1.85
2019-05-12T12:14:50.394Z,1.55
2019-05-12T12:17:25.090Z,1.90
2019-05-12T12:19:49.461Z,1.45
2019-05-12T12:22:20.531Z,1.20
2019-05-12T12:24:49.827Z,1.55
2019-05-12T12:27:19.060Z,2.33
2019-05-12T12:29:48.384Z,1.60
2019-05-12T12:32:20.331Z,1.67
2019-05-12T12:34:48.703Z,1.25
2019-05-12T12:37:23.686Z,1.98
2019-05-12T12:39:49.010Z,1.30
2019-05-12T12:42:18.266Z,1.20
2019-05-12T12:44:47.622Z,1.45
2019-05-12T12:47:17.051Z,1.30
2019-05-12T12:49:49.209Z,1.40
2019-05-12T12:52:17.503Z,1.90
2019-05-12T12:54:46.802Z,2.55
2019-05-12T12:57:19.053Z,2.10
2019-05-12T12:59:51.475Z,1.87
2019-05-12T13:02:18.176Z,2.47
2019-05-12T13:04:50.299Z,3.08
2019-05-12T13:07:18.524Z,1.92
2019-05-12T13:09:47.826Z,2.17
2019-05-12T13:12:19.596Z,1.40
2019-05-12T13:14:48.243Z,3.00
2019-05-12T13:17:17.621Z,1.55
2019-05-12T13:19:48.882Z,2.20
2019-05-12T13:22:19.137Z,2.02
2019-05-12T13:24:48.469Z,2.65
2019-05-12T13:27:19.295Z,2.15
2019-05-12T13:29:48.865Z,1.25
2019-05-12T13:32:18.185Z,1.80
2019-05-12T13:34:47.506Z,3.17
2019-05-12T13:37:19.483Z,2.27
2019-05-12T13:39:55.164Z,2.10
2019-05-12T13:42:18.947Z,2.83
2019-05-12T13:44:48.253Z,1.40
2019-05-12T13:47:17.634Z,1.98
2019-05-12T13:49:47.616Z,1.55
2019-05-12T13:52:20.125Z,1.52
2019-05-12T13:54:48.293Z,2.98
2019-05-12T13:57:17.616Z,2.87
2019-05-12T13:59:46.931Z,2.35
2019-05-12T14:02:22.107Z,2.50
2019-05-12T14:04:47.301Z,2.15
2019-05-12T14:07:20.149Z,3.45
2019-05-12T14:09:47.624Z,1.87
2019-05-12T14:12:16.877Z,2.08
2019-05-12T14:14:46.163Z,2.25
2019-05-12T14:17:15.522Z,1.32
2019-05-12T14:19:46.214Z,2.25
2019-05-12T14:22:21.322Z,1.75
2019-05-12T14:24:47.069Z,1.72
2019-05-12T14:27:19.098Z,2.05
2019-05-12T14:29:47.487Z,2.40
2019-05-12T14:32:17.465Z,2.08
2019-05-12T14:34:51.074Z,3.08
2019-05-12T14:37:18.062Z,2.58
2019-05-12T14:39:50.276Z,2.42
2019-05-12T14:42:18.472Z,3.65
2019-05-12T14:44:49.790Z,2.52
2019-05-12T14:47:19.293Z,1.90
2019-05-12T14:49:49.851Z,3.27
2019-05-12T14:52:19.394Z,1.82
2019-05-12T14:54:48.705Z,2.22
2019-05-12T14:57:18.014Z,2.05
2019-05-12T14:59:47.314Z,1.90
2019-05-12T15:02:19.527Z,1.32
2019-05-12T15:04:47.680Z,1.60
2019-05-12T15:07:17.046Z,2.22
2019-05-12T15:09:46.478Z,2.20
2019-05-12T15:12:15.761Z,1.52
2019-05-12T15:14:45.128Z,1.50
2019-05-12T15:17:22.371Z,1.87
2019-05-12T15:19:45.809Z,1.82
2019-05-12T15:22:15.140Z,2.47
2019-05-12T15:24:49.449Z,2.10
2019-05-12T15:27:15.510Z,2.72
2019-05-12T15:29:44.938Z,1.90
2019-05-12T15:32:15.500Z,2.22
2019-05-12T15:34:44.985Z,2.83
2019-05-12T15:37:14.288Z,2.05
2019-05-12T15:39:44.062Z,2.60
2019-05-12T15:42:14.174Z,2.00
2019-05-12T15:44:43.748Z,1.50
2019-05-12T15:47:13.080Z,2.17
2019-05-12T15:49:44.232Z,2.70
2019-05-12T15:52:14.428Z,1.50
2019-05-12T15:54:49.432Z,2.35
2019-05-12T15:57:15.065Z,2.58
2019-05-12T15:59:44.376Z,2.15
2019-05-12T16:02:16.805Z,2.37
2019-05-12T16:04:48.426Z,1.80
2019-05-12T16:07:15.852Z,2.33
2019-05-12T16:09:45.712Z,3.40
2019-05-12T16:12:20.283Z,1.90
2019-05-12T16:14:46.213Z,2.87
2019-05-12T16:17:16.907Z,1.75
2019-05-12T16:19:46.671Z,2.17
2019-05-12T16:22:16.066Z,2.42
2019-05-12T16:24:48.958Z,1.55
2019-05-12T16:27:17.405Z,2.92
2019-05-12T16:29:49.955Z,2.35
2019-05-12T16:32:26.715Z,1.87
2019-05-12T16:34:54.219Z,1.76
2019-05-12T16:37:31.217Z,2.05
2019-05-12T16:39:54.582Z,2.15
2019-05-12T16:42:23.901Z,2.85
2019-05-12T16:44:56.228Z,1.82
2019-05-12T16:47:29.097Z,2.98
2019-05-12T16:49:55.273Z,1.80
2019-05-12T16:52:24.770Z,2.33
2019-05-12T16:54:54.204Z,2.42
2019-05-12T16:57:23.631Z,2.75
2019-05-12T17:00:02.368Z,3.80
2019-05-12T17:02:38.407Z,2.45
2019-05-12T17:04:55.038Z,1.95
2019-05-12T17:07:26.979Z,2.70
2019-05-12T17:09:55.374Z,1.92
2019-05-12T17:12:31.995Z,5.28
2019-05-12T17:14:55.740Z,2.42
2019-05-12T17:17:25.042Z,2.47
2019-05-12T17:19:54.335Z,3.27
2019-05-12T17:22:24.022Z,4.00
2019-05-12T17:24:53.853Z,2.65
2019-05-12T17:27:27.127Z,2.30
2019-05-12T17:29:54.787Z,2.05
2019-05-12T17:32:24.073Z,2.10
2019-05-12T17:34:53.449Z,2.83
2019-05-12T17:37:24.268Z,2.20
2019-05-12T17:39:53.720Z,1.98
2019-05-12T17:42:26.770Z,2.27
2019-05-12T17:44:54.519Z,2.20
2019-05-12T17:47:26.290Z,1.67
2019-05-12T17:49:54.916Z,2.33
2019-05-12T17:52:24.555Z,3.50
2019-05-12T17:54:57.882Z,6.17
2019-05-12T17:57:25.397Z,3.40
2019-05-12T17:59:59.842Z,4.33
2019-05-12T18:02:26.011Z,1.37
2019-05-12T18:05:01.268Z,4.12
2019-05-12T18:07:26.577Z,2.37
2019-05-12T18:10:00.457Z,1.65
2019-05-12T18:12:36.532Z,1.50
2019-05-12T18:14:58.471Z,2.58
2019-05-12T18:17:27.837Z,4.58
2019-05-12T18:20:00.822Z,1.72
2019-05-12T18:22:28.474Z,2.15
2019-05-12T18:24:58.047Z,2.77
2019-05-12T18:27:27.513Z,2.47
2019-05-12T18:29:56.855Z,2.22
2019-05-12T18:32:26.229Z,2.05
2019-05-12T18:34:55.571Z,2.83
2019-05-12T18:37:25.048Z,2.10
2019-05-12T18:39:54.365Z,1.67
2019-05-12T18:42:24.590Z,3.86
2019-05-12T18:44:54.718Z,1.57
2019-05-12T18:47:31.723Z,1.60
2019-05-12T18:49:55.357Z,3.15
2019-05-12T18:52:29.384Z,4.03
2019-05-12T18:54:57.090Z,4.05
2019-05-12T18:57:27.119Z,4.03
2019-05-12T19:00:03.473Z,6.30
2019-05-12T19:02:28.575Z,3.22
2019-05-12T19:04:58.150Z,3.60
2019-05-12T19:07:39.340Z,4.37
2019-05-12T19:10:00.067Z,3.55
2019-05-12T19:12:32.620Z,3.83
2019-05-12T19:15:00.591Z,2.52
2019-05-12T19:17:29.974Z,3.58
2019-05-12T19:20:00.162Z,3.58
2019-05-12T19:22:30.287Z,3.47
2019-05-12T19:25:00.105Z,2.83
2019-05-12T19:27:29.536Z,2.15
2019-05-12T19:29:59.002Z,4.90
2019-05-12T19:32:29.404Z,3.33
2019-05-12T19:34:58.805Z,4.40
2019-05-12T19:37:30.040Z,4.40
2019-05-12T19:40:03.972Z,3.98
2019-05-12T19:42:30.624Z,3.80
2019-05-12T19:45:00.242Z,2.37
2019-05-12T19:47:36.275Z,3.65
2019-05-12T19:50:06.877Z,2.52
2019-05-12T19:52:33.477Z,5.47
2019-05-12T19:55:03.693Z,3.75
2019-05-12T19:57:33.630Z,5.03
2019-05-12T20:00:04.536Z,3.33
2019-05-12T20:02:34.268Z,4.50
2019-05-12T20:05:04.706Z,5.85
2019-05-12T20:07:34.144Z,3.27
2019-05-12T20:10:04.678Z,7.92
2019-05-12T20:12:34.432Z,3.37
2019-05-12T20:15:04.255Z,4.45
2019-05-12T20:17:34.124Z,3.45
2019-05-12T20:20:04.757Z,3.65
2019-05-12T20:22:34.372Z,6.05
2019-05-12T20:25:04.423Z,4.00
2019-05-12T20:27:34.424Z,4.40
2019-05-12T20:30:15.503Z,6.35
2019-05-12T20:32:37.667Z,3.83
2019-05-12T20:35:07.408Z,4.22
2019-05-12T20:37:36.724Z,4.70
2019-05-12T20:40:07.168Z,5.25
2019-05-12T20:42:44.045Z,4.08
2019-05-12T20:45:08.686Z,2.83
2019-05-12T20:47:39.116Z,4.72
2019-05-12T20:50:09.352Z,5.97
2019-05-12T20:52:39.420Z,8.43
2019-05-12T20:55:09.947Z,5.25
2019-05-12T20:57:48.596Z,4.00
2019-05-12T21:00:10.976Z,4.20
2019-05-12T21:02:40.293Z,8.93
2019-05-12T21:05:15.344Z,4.37
2019-05-12T21:07:42.242Z,6.58
2019-05-12T21:10:11.580Z,5.47
2019-05-12T21:12:46.591Z,7.33
2019-05-12T21:15:17.434Z,6.85
2019-05-12T21:17:46.477Z,5.75
2019-05-12T21:20:16.669Z,6.50
2019-05-12T21:22:45.479Z,7.35
2019-05-12T21:25:14.811Z,6.15
2019-05-12T21:27:47.653Z,4.70
2019-05-12T21:30:15.730Z,7.12
2019-05-12T21:32:56.541Z,6.70
2019-05-12T21:35:22.199Z,4.90
2019-05-12T21:37:48.535Z,6.67
2019-05-12T21:40:24.154Z,3.80
2019-05-12T21:42:49.059Z,5.83
2019-05-12T21:45:20.224Z,3.95
2019-05-12T21:47:49.426Z,4.95
2019-05-12T21:50:24.280Z,6.17
2019-05-12T21:52:49.871Z,4.55
2019-05-12T21:55:22.011Z,8.08
2019-05-12T21:57:50.183Z,5.22
2019-05-12T22:00:27.194Z,4.33
2019-05-12T22:03:02.199Z,4.87
2019-05-12T22:05:46.997Z,6.33
2019-05-12T22:07:59.103Z,5.85
2019-05-12T22:10:30.761Z,5.10
2019-05-12T22:13:00.377Z,5.75
2019-05-12T22:15:30.610Z,5.20
2019-05-12T22:17:59.939Z,4.28
2019-05-12T22:20:30.155Z,6.25
2019-05-12T22:23:00.488Z,3.60
2019-05-12T22:25:30.899Z,6.55
2019-05-12T22:28:05.437Z,7.78
2019-05-12T22:30:34.572Z,7.05
2019-05-12T22:33:05.908Z,10.23
2019-05-12T22:35:34.682Z,6.75
2019-05-12T22:38:14.973Z,7.47
2019-05-12T22:40:34.977Z,6.58
2019-05-12T22:43:07.177Z,4.60
2019-05-12T22:45:43.890Z,6.15
2019-05-12T22:48:06.497Z,5.25
2019-05-12T22:50:35.751Z,5.65
2019-05-12T22:53:05.145Z,3.85
2019-05-12T22:55:35.956Z,7.47
2019-05-12T22:58:10.809Z,6.92
2019-05-12T23:00:37.079Z,7.72
2019-05-12T23:03:11.512Z,7.87
2019-05-12T23:05:37.462Z,5.65
2019-05-12T23:08:08.559Z,7.45
2019-05-12T23:10:41.450Z,6.45
2019-05-12T23:13:08.907Z,6.37
2019-05-12T23:15:38.725Z,9.13
2019-05-12T23:18:09.243Z,8.13
2019-05-12T23:20:38.538Z,4.97
2019-05-12T23:23:09.175Z,4.28
2019-05-12T23:25:38.797Z,6.05
2019-05-12T23:28:10.438Z,5.65
2019-05-12T23:30:43.799Z,6.65
2019-05-12T23:33:10.115Z,7.08
2019-05-12T23:35:39.809Z,6.05
2019-05-12T23:38:10.511Z,5.60
2019-05-12T23:40:40.095Z,7.35
2019-05-12T23:43:09.392Z,6.58
2019-05-12T23:45:38.658Z,6.47
2019-05-12T23:48:07.896Z,6.37
2019-05-12T23:50:37.148Z,5.37
2019-05-12T23:53:06.491Z,6.62
2019-05-12T23:55:35.795Z,6.95
2019-05-12T23:58:05.045Z,7.70
